Terminal Aerodrome Forecast
Issued by NWS Jacksonville, FL

Home | Current Version | Previous Version | Text Only | Print | Product List | Glossary On
Versions: 1 2 3 4 5 6 7 8 9 10 11 12 13 14 15 16 17 18 19 20 21 22 23 24 25 26 27 28 29 30 31 32 33 34 35 36 37
000
FTUS42 KJAX 022014 AAB
TAFGNV
TAF AMD
KGNV 022014Z 0220/0318 22008KT P6SM VCTS SCT035CB BKN050
      TEMPO 0220/0221 VRB10G20KT 3SM TSRA BKN030CB
     FM030000 23003KT P6SM VCSH SCT040 BKN100 BKN250
     FM031200 29007KT P6SM VCSH BKN040 OVC100=

USA.gov is the U.S. government's official web portal to all federal, state and local government web resources and services.